createdAt,value
2017-09-03T00:03:37.960Z,101454.75
2017-09-03T00:08:40.627Z,101447.13
2017-09-03T00:13:43.475Z,101453.23
2017-09-03T00:18:46.425Z,101440.01
2017-09-03T00:23:49.111Z,101425.89
2017-09-03T00:28:51.197Z,101434.41
2017-09-03T00:33:54.592Z,101429.19
2017-09-03T00:38:56.614Z,101437.80
2017-09-03T00:43:59.242Z,101438.73
2017-09-03T00:49:02.239Z,101434.86
2017-09-03T00:54:05.355Z,101422.41
2017-09-03T00:59:07.364Z,101420.47
2017-09-03T01:04:09.544Z,101417.58
2017-09-03T01:09:11.615Z,101417.95
2017-09-03T01:14:13.565Z,101409.38
2017-09-03T01:19:15.729Z,101407.77
2017-09-03T01:24:17.675Z,101408.75
2017-09-03T01:29:19.628Z,101413.39
2017-09-03T01:34:21.669Z,101410.45
2017-09-03T01:39:23.652Z,101416.34
2017-09-03T01:44:25.628Z,101416.28
2017-09-03T01:49:28.506Z,101408.02
2017-09-03T01:54:31.391Z,101402.25
2017-09-03T01:59:34.020Z,101396.04
2017-09-03T02:04:36.766Z,101398.12
2017-09-03T02:09:39.238Z,101398.48
2017-09-03T02:14:43.652Z,101407.08
2017-09-03T02:19:46.616Z,101406.31
2017-09-03T02:24:49.524Z,101412.58
2017-09-03T02:29:51.476Z,101408.70
2017-09-03T02:34:53.545Z,101398.19
2017-09-03T02:39:55.495Z,101394.16
2017-09-03T02:44:58.364Z,101401.75
2017-09-03T02:50:00.455Z,101400.06
2017-09-03T02:55:02.505Z,101394.48
2017-09-03T03:00:04.446Z,101405.00
2017-09-03T03:05:08.488Z,101405.69
2017-09-03T03:10:10.521Z,101400.61
2017-09-03T03:15:12.496Z,101400.33
2017-09-03T03:20:14.514Z,101401.53
2017-09-03T03:25:16.958Z,101403.37
2017-09-03T03:30:18.921Z,101393.13
2017-09-03T03:35:23.078Z,101394.39
2017-09-03T03:40:25.360Z,101395.87
2017-09-03T03:45:27.355Z,101388.89
2017-09-03T03:50:29.340Z,101386.55
2017-09-03T03:55:31.364Z,101378.23
2017-09-03T04:00:33.792Z,101375.81
2017-09-03T04:05:35.885Z,101376.33
2017-09-03T04:10:37.882Z,101371.67
2017-09-03T04:15:39.875Z,101367.70
2017-09-03T04:20:41.815Z,101364.56
2017-09-03T04:25:43.841Z,101366.86
2017-09-03T04:30:45.798Z,101367.12
2017-09-03T04:35:48.632Z,101364.64
2017-09-03T04:40:50.571Z,101350.80
2017-09-03T04:45:52.538Z,101352.77
2017-09-03T04:50:54.749Z,101344.21
2017-09-03T04:55:57.257Z,101340.05
2017-09-03T05:00:59.286Z,101333.02
2017-09-03T05:06:02.719Z,101333.52
2017-09-03T05:11:04.712Z,101343.11
2017-09-03T05:16:06.829Z,101340.76
2017-09-03T05:21:10.918Z,101343.95
2017-09-03T05:26:12.944Z,101342.15
2017-09-03T05:31:17.044Z,101346.86
2017-09-03T05:36:19.509Z,101346.24
2017-09-03T05:41:21.592Z,101351.83
2017-09-03T05:46:23.603Z,101345.67
2017-09-03T05:51:25.658Z,101343.66
2017-09-03T05:56:27.935Z,101341.59
2017-09-03T06:01:29.924Z,101340.86
2017-09-03T06:06:32.706Z,101348.00
2017-09-03T06:11:34.752Z,101347.95
2017-09-03T06:16:36.738Z,101344.83
2017-09-03T06:21:38.829Z,101339.63
2017-09-03T06:26:40.882Z,101337.85
2017-09-03T06:31:42.885Z,101338.58
2017-09-03T06:36:49.984Z,101345.77
2017-09-03T06:41:59.109Z,101352.02
2017-09-03T06:47:02.027Z,101356.03
2017-09-03T06:52:04.124Z,101358.69
2017-09-03T06:57:06.126Z,101363.40
2017-09-03T07:02:08.208Z,101358.95
2017-09-03T07:07:10.255Z,101362.30
2017-09-03T07:12:12.413Z,101353.02
2017-09-03T07:17:14.661Z,101366.28
2017-09-03T07:22:17.009Z,101364.86
2017-09-03T07:27:19.307Z,101366.64
2017-09-03T07:32:21.321Z,101355.16
2017-09-03T07:37:23.523Z,101352.61
2017-09-03T07:42:25.865Z,101363.33
2017-09-03T07:47:28.107Z,101358.76
2017-09-03T07:52:30.023Z,101356.58
2017-09-03T07:57:31.961Z,101347.92
2017-09-03T08:02:33.918Z,101344.14
2017-09-03T08:07:35.866Z,101348.70
2017-09-03T08:12:37.807Z,101350.16
2017-09-03T08:17:39.899Z,101343.95
2017-09-03T08:22:41.837Z,101346.33
2017-09-03T08:27:44.515Z,101345.59
2017-09-03T08:32:46.670Z,101344.41
2017-09-03T08:37:48.601Z,101341.89
2017-09-03T08:42:50.614Z,101341.27
2017-09-03T08:47:54.799Z,101345.72
2017-09-03T08:52:56.958Z,101338.53
2017-09-03T08:57:58.882Z,101333.16
2017-09-03T09:03:00.831Z,101334.43
2017-09-03T09:08:02.829Z,101334.58
2017-09-03T09:13:04.791Z,101322.67
2017-09-03T09:18:06.765Z,101326.16
2017-09-03T09:23:08.793Z,101325.09
2017-09-03T09:28:10.787Z,101311.16
2017-09-03T09:33:13.203Z,101311.01
2017-09-03T09:38:15.703Z,101309.50
2017-09-03T09:43:18.003Z,101299.09
2017-09-03T09:48:20.034Z,101292.04
2017-09-03T09:53:23.335Z,101299.92
2017-09-03T09:58:26.276Z,101298.05
2017-09-03T10:03:28.620Z,101295.22
2017-09-03T10:08:34.147Z,101292.25
2017-09-03T10:13:36.420Z,101285.44
2017-09-03T10:18:38.689Z,101290.41
2017-09-03T10:23:41.010Z,101277.66
2017-09-03T10:28:44.149Z,101279.42
2017-09-03T10:33:47.815Z,101274.89
2017-09-03T10:38:50.215Z,101270.81
2017-09-03T10:43:52.747Z,101268.30
2017-09-03T10:48:56.625Z,101256.42
2017-09-03T10:53:59.554Z,101249.55
2017-09-03T10:59:02.093Z,101252.19
2017-09-03T11:04:04.165Z,101247.20
2017-09-03T11:09:06.128Z,101247.20
2017-09-03T11:14:09.820Z,101227.71
2017-09-03T11:19:11.830Z,101232.41
2017-09-03T11:24:13.948Z,101226.22
2017-09-03T11:29:16.026Z,101233.86
2017-09-03T11:34:18.362Z,101224.61
2017-09-03T11:39:20.318Z,101224.66
2017-09-03T11:44:22.561Z,101225.39
2017-09-03T11:49:24.886Z,101216.64
2017-09-03T11:54:27.182Z,101203.48
2017-09-03T11:59:29.127Z,101190.20
2017-09-03T12:04:31.261Z,101195.28
2017-09-03T12:09:33.219Z,101184.30
2017-09-03T12:14:35.162Z,101182.05
2017-09-03T12:19:37.105Z,101173.75
2017-09-03T12:24:39.051Z,101173.26
2017-09-03T12:29:41.074Z,101175.70
2017-09-03T12:34:42.990Z,101160.61
2017-09-03T12:39:44.928Z,101149.13
2017-09-03T12:44:46.859Z,101153.07
2017-09-03T12:49:48.826Z,101151.72
2017-09-03T12:54:50.762Z,101133.80
2017-09-03T12:59:52.692Z,101138.61
2017-09-03T13:04:54.642Z,101131.94
2017-09-03T13:09:56.576Z,101125.93
2017-09-03T13:14:58.510Z,101125.45
2017-09-03T13:20:00.487Z,101111.87
2017-09-03T13:25:02.522Z,101113.14
2017-09-03T13:30:04.558Z,101108.61
2017-09-03T13:35:06.487Z,101102.03
2017-09-03T13:40:08.469Z,101105.25
2017-09-03T13:45:10.391Z,101102.58
2017-09-03T13:50:12.347Z,101100.77
2017-09-03T13:55:14.306Z,101088.67
2017-09-03T14:00:16.400Z,101093.38
2017-09-03T14:05:18.408Z,101081.94
2017-09-03T14:10:20.377Z,101082.42
2017-09-03T14:15:22.343Z,101078.43
2017-09-03T14:20:24.278Z,101077.55
2017-09-03T14:25:26.298Z,101074.04
2017-09-03T14:30:28.343Z,101078.67
2017-09-03T14:35:30.300Z,101082.86
2017-09-03T14:40:32.239Z,101087.95
2017-09-03T14:45:34.167Z,101095.20
2017-09-03T14:50:36.116Z,101098.59
2017-09-03T14:55:39.037Z,101094.05
2017-09-03T15:00:40.975Z,101095.38
2017-09-03T15:05:42.886Z,101091.24
2017-09-03T15:10:44.823Z,101089.89
2017-09-03T15:15:46.811Z,101084.30
2017-09-03T15:20:48.765Z,101073.03
2017-09-03T15:25:50.861Z,101067.42
2017-09-03T15:30:52.839Z,101065.62
2017-09-03T15:35:54.783Z,101059.02
2017-09-03T15:40:56.715Z,101059.92
2017-09-03T15:45:58.678Z,101059.59
2017-09-03T15:51:00.637Z,101051.59
2017-09-03T15:56:02.657Z,101048.48
2017-09-03T16:01:04.607Z,101053.95
2017-09-03T16:06:06.573Z,101045.02
2017-09-03T16:11:08.886Z,101045.02
2017-09-03T16:16:10.837Z,101045.92
2017-09-03T16:21:12.822Z,101037.84
2017-09-03T16:26:14.818Z,101042.14
2017-09-03T16:31:17.288Z,101036.20
2017-09-03T16:36:19.487Z,101033.05
2017-09-03T16:41:21.663Z,101028.50
2017-09-03T16:46:23.706Z,101028.28
2017-09-03T16:51:25.829Z,101034.17
2017-09-03T16:56:27.983Z,101028.67
2017-09-03T17:01:30.025Z,101026.34
2017-09-03T17:06:32.359Z,101030.01
2017-09-03T17:11:38.254Z,101035.25
2017-09-03T17:16:41.114Z,101039.45
2017-09-03T17:21:43.179Z,101037.98
2017-09-03T17:26:45.566Z,101038.73
2017-09-03T17:31:50.443Z,101038.39
2017-09-03T17:37:04.203Z,101046.50
2017-09-03T17:42:11.243Z,101047.52
2017-09-03T17:47:14.524Z,101053.81
2017-09-03T17:52:17.647Z,101055.72
2017-09-03T17:57:19.686Z,101053.80
2017-09-03T18:02:21.762Z,101057.50
2017-09-03T18:07:27.369Z,101059.69
2017-09-03T18:12:29.654Z,101064.14
2017-09-03T18:17:31.780Z,101073.38
2017-09-03T18:22:34.380Z,101069.80
2017-09-03T18:27:36.734Z,101066.95
2017-09-03T18:32:38.787Z,101073.58
2017-09-03T18:37:50.868Z,101073.02
2017-09-03T18:42:59.904Z,101079.11
2017-09-03T18:48:05.988Z,101079.69
2017-09-03T18:53:08.045Z,101081.52
2017-09-03T18:58:11.548Z,101085.44
2017-09-03T19:03:15.199Z,101084.52
2017-09-03T19:08:17.197Z,101082.05
2017-09-03T19:13:19.250Z,101083.45
2017-09-03T19:18:21.297Z,101093.38
2017-09-03T19:23:23.392Z,101094.06
2017-09-03T19:28:25.406Z,101088.36
2017-09-03T19:33:27.556Z,101092.89
2017-09-03T19:38:29.632Z,101091.66
2017-09-03T19:43:32.448Z,101099.33
2017-09-03T19:48:34.452Z,101102.50
2017-09-03T19:53:36.517Z,101103.57
2017-09-03T19:58:38.727Z,101106.62
2017-09-03T20:03:44.436Z,101089.30
2017-09-03T20:08:47.008Z,101109.53
2017-09-03T20:13:48.979Z,101102.56
2017-09-03T20:18:51.022Z,101105.38
2017-09-03T20:23:53.082Z,101117.23
2017-09-03T20:28:55.077Z,101110.74
2017-09-03T20:33:57.094Z,101108.95
2017-09-03T20:38:59.048Z,101112.28
2017-09-03T20:44:01.030Z,101111.51
2017-09-03T20:49:03.123Z,101112.08
2017-09-03T20:54:05.275Z,101114.23
2017-09-03T20:59:07.283Z,101123.02
2017-09-03T21:04:09.331Z,101129.89
2017-09-03T21:09:11.344Z,101117.80
2017-09-03T21:14:13.351Z,101120.19
2017-09-03T21:19:15.403Z,101120.44
2017-09-03T21:24:17.434Z,101119.11
2017-09-03T21:29:19.492Z,101110.43
2017-09-03T21:34:22.017Z,101102.77
2017-09-03T21:39:24.866Z,101097.03
2017-09-03T21:44:26.886Z,101019.38
2017-09-03T21:49:29.043Z,101100.20
2017-09-03T21:54:31.104Z,101102.52
2017-09-03T21:59:33.220Z,101081.97
2017-09-03T22:04:35.983Z,101086.65
2017-09-03T22:09:38.149Z,101087.98
2017-09-03T22:14:40.289Z,101092.05
2017-09-03T22:19:42.326Z,101090.55
2017-09-03T22:24:44.391Z,101078.73
2017-09-03T22:29:47.282Z,101084.16
2017-09-03T22:34:49.294Z,101079.34
2017-09-03T22:39:51.310Z,101080.20
2017-09-03T22:44:53.305Z,101077.69
2017-09-03T22:49:55.633Z,101077.61
2017-09-03T22:54:57.629Z,101078.70
2017-09-03T22:59:59.608Z,101079.34
2017-09-03T23:05:01.639Z,101069.17
2017-09-03T23:10:03.707Z,101073.28
2017-09-03T23:15:05.806Z,101072.18
2017-09-03T23:20:07.791Z,101066.94
2017-09-03T23:25:09.829Z,101064.08
2017-09-03T23:30:12.190Z,101066.44
2017-09-03T23:35:14.222Z,101070.80
2017-09-03T23:40:16.265Z,101072.25
2017-09-03T23:45:18.283Z,101064.13
2017-09-03T23:50:20.312Z,101065.14
2017-09-03T23:55:22.312Z,101059.89
